Time;durP1;ratioP1;P1;durP2;ratioP2;P2;SDS_P1;SDS_P2;PMS_P1;PMS_P2;Temp;Humidity;BMP_temperature;BMP_pressure;BME280_temperature;BME280_humidity;BME280_pressure;Samples;Min_cycle;Max_cycle;Signal;HPM_P1;HPM_P2
2022/01/08 00:00:14;;;;;;;0.30;0.30;;;1.70;99.90;;;;;;5029955;28;20045;-73
2022/01/08 00:02:44;;;;;;;0.30;0.30;;;1.60;99.90;;;;;;5030145;28;20045;-73
2022/01/08 00:05:10;;;;;;;0.80;0.65;;;1.60;99.90;;;;;;5026526;28;20452;-73
2022/01/08 00:07:37;;;;;;;1.52;1.15;;;1.60;99.90;;;;;;5029998;28;20049;-73
2022/01/08 00:10:04;;;;;;;0.93;0.80;;;1.60;99.90;;;;;;5030458;28;20048;-73
2022/01/08 00:12:30;;;;;;;0.95;0.50;;;1.60;99.90;;;;;;5018814;28;20137;-73
2022/01/08 00:14:55;;;;;;;2.13;1.60;;;1.60;99.90;;;;;;5013704;28;20537;-73
2022/01/08 00:17:22;;;;;;;1.30;0.82;;;1.60;99.90;;;;;;5029337;28;20044;-73
2022/01/08 00:19:52;;;;;;;4.93;1.30;;;1.60;99.90;;;;;;5043622;28;20494;-73
2022/01/08 00:22:18;;;;;;;0.82;0.70;;;1.60;99.90;;;;;;5030291;28;20740;-73
2022/01/08 00:24:44;;;;;;;3.22;1.48;;;1.60;99.90;;;;;;5030155;28;20038;-73
2022/01/08 00:27:10;;;;;;;3.60;1.13;;;1.50;99.90;;;;;;5030002;28;20528;-73
2022/01/08 00:29:36;;;;;;;2.05;0.90;;;1.50;99.90;;;;;;5026628;28;20046;-73
2022/01/08 00:32:01;;;;;;;1.25;0.90;;;1.50;99.90;;;;;;5030164;28;20079;-73
2022/01/08 00:34:27;;;;;;;0.80;0.80;;;1.40;99.90;;;;;;5030132;28;20055;-73
2022/01/08 00:36:53;;;;;;;1.23;1.20;;;1.40;99.90;;;;;;5029127;28;20559;-73
2022/01/08 00:39:19;;;;;;;4.30;1.95;;;1.30;99.90;;;;;;5028460;28;20480;-73
2022/01/08 00:41:44;;;;;;;0.65;0.65;;;1.30;99.90;;;;;;5029640;28;20049;-73
2022/01/08 00:44:10;;;;;;;1.23;0.85;;;1.30;99.90;;;;;;5029702;28;20077;-73
2022/01/08 00:46:36;;;;;;;3.47;1.42;;;1.30;99.90;;;;;;5028591;28;20124;-73
2022/01/08 00:49:03;;;;;;;0.50;0.50;;;1.30;99.90;;;;;;5020786;28;20044;-73
2022/01/08 00:51:28;;;;;;;2.80;1.38;;;1.30;99.90;;;;;;5029454;28;20049;-73
2022/01/08 00:53:54;;;;;;;1.67;1.42;;;1.30;99.90;;;;;;5028063;28;20041;-73
2022/01/08 00:56:20;;;;;;;2.25;1.00;;;1.30;99.90;;;;;;5027777;28;20103;-73
2022/01/08 00:58:45;;;;;;;0.77;0.77;;;1.20;99.90;;;;;;5029588;28;20084;-73
2022/01/08 01:01:11;;;;;;;1.17;1.08;;;1.20;99.90;;;;;;5029715;28;20045;-73
2022/01/08 01:03:37;;;;;;;0.63;0.63;;;1.20;99.90;;;;;;5029581;28;20037;-73
2022/01/08 01:06:04;;;;;;;1.05;0.95;;;1.20;99.90;;;;;;5020606;28;20037;-73
2022/01/08 01:08:29;;;;;;;6.60;1.73;;;1.30;99.90;;;;;;5029666;28;20041;-73
2022/01/08 01:10:55;;;;;;;4.05;2.05;;;1.30;99.90;;;;;;5027127;28;20520;-73
2022/01/08 01:13:21;;;;;;;1.23;0.68;;;1.40;99.90;;;;;;5019599;28;20107;-73
2022/01/08 01:15:47;;;;;;;0.63;0.63;;;1.50;99.90;;;;;;5028770;28;20045;-73
2022/01/08 01:18:12;;;;;;;1.55;1.10;;;1.60;99.90;;;;;;5029020;28;20429;-73
2022/01/08 01:20:38;;;;;;;1.10;1.00;;;1.70;99.90;;;;;;5027079;28;20044;-73
2022/01/08 01:23:10;;;;;;;3.80;2.00;;;1.70;99.90;;;;;;5028889;28;20458;-73
2022/01/08 01:25:41;;;;;;;1.38;1.17;;;1.80;99.90;;;;;;5000075;28;20045;-73
2022/01/08 01:41:30;;;;;;;3.13;1.30;;;1.90;99.90;;;;;;5028418;28;20080;-73
2022/01/08 01:49:20;;;;;;;3.83;0.60;;;1.80;99.90;;;;;;5041450;28;20045;-73
2022/01/08 01:51:45;;;;;;;1.83;0.63;;;1.80;99.90;;;;;;5028641;28;20501;-73
2022/01/08 01:54:12;;;;;;;2.15;1.30;;;1.70;99.90;;;;;;5032500;28;20041;-73
2022/01/08 01:56:39;;;;;;;1.73;1.00;;;1.70;99.90;;;;;;5026915;28;20043;-73
2022/01/08 01:59:05;;;;;;;1.77;1.20;;;1.70;99.90;;;;;;5016295;28;20095;-73
2022/01/08 02:01:31;;;;;;;3.67;1.38;;;1.70;99.90;;;;;;5033104;28;20037;-73
2022/01/08 02:03:57;;;;;;;1.27;1.17;;;1.70;99.90;;;;;;5033053;28;20671;-73
2022/01/08 02:06:24;;;;;;;1.42;1.13;;;1.70;99.90;;;;;;5024608;28;20048;-73
2022/01/08 02:08:50;;;;;;;0.60;0.60;;;1.70;99.90;;;;;;5032645;28;20156;-73
2022/01/08 02:11:18;;;;;;;0.57;0.40;;;1.60;99.90;;;;;;5031050;28;20126;-73
2022/01/08 02:13:44;;;;;;;0.30;0.30;;;1.60;99.90;;;;;;5021795;28;20049;-73
2022/01/08 02:16:16;;;;;;;2.28;1.40;;;1.60;99.90;;;;;;5032176;28;20449;-73
2022/01/08 02:18:46;;;;;;;0.30;0.30;;;1.60;99.90;;;;;;5032831;28;20080;-73
2022/01/08 02:21:14;;;;;;;0.30;0.30;;;1.50;99.90;;;;;;5027744;28;20095;-73
2022/01/08 02:23:41;;;;;;;0.30;0.30;;;1.40;99.90;;;;;;5032546;28;20049;-73
2022/01/08 02:26:08;;;;;;;0.90;0.50;;;1.40;99.90;;;;;;5032038;28;20038;-74
2022/01/08 02:28:36;;;;;;;0.30;0.30;;;1.30;99.90;;;;;;5031993;28;20040;-73
2022/01/08 02:31:02;;;;;;;0.52;0.52;;;1.30;99.90;;;;;;5048248;28;20051;-73
2022/01/08 02:33:29;;;;;;;0.30;0.30;;;1.20;99.90;;;;;;5032100;28;20045;-73
2022/01/08 02:35:56;;;;;;;0.30;0.30;;;1.20;99.90;;;;;;5031721;28;20053;-73
2022/01/08 02:38:23;;;;;;;0.20;0.20;;;1.10;99.90;;;;;;5014285;28;20501;-73
2022/01/08 02:40:54;;;;;;;0.50;0.50;;;1.10;99.90;;;;;;5031661;28;20100;-73
2022/01/08 02:43:20;;;;;;;0.30;0.30;;;1.10;99.90;;;;;;5032407;28;20067;-73
2022/01/08 02:45:45;;;;;;;0.50;0.50;;;1.10;99.90;;;;;;5031704;28;20041;-74
2022/01/08 02:48:11;;;;;;;0.57;0.57;;;1.10;99.90;;;;;;5023706;28;20045;-73
2022/01/08 02:50:37;;;;;;;0.40;0.40;;;1.10;99.90;;;;;;5031733;28;20041;-73
2022/01/08 02:53:03;;;;;;;0.40;0.40;;;1.20;99.90;;;;;;5031630;28;20041;-73
2022/01/08 02:55:28;;;;;;;1.75;0.95;;;1.20;99.90;;;;;;5028181;28;20425;-73
2022/01/08 02:57:54;;;;;;;0.43;0.43;;;1.20;99.90;;;;;;5032207;28;20049;-73
2022/01/08 03:00:20;;;;;;;0.52;0.52;;;1.20;99.90;;;;;;5031849;28;20825;-73
2022/01/08 03:02:49;;;;;;;0.40;0.40;;;1.20;99.90;;;;;;5031635;28;20049;-73
2022/01/08 03:05:16;;;;;;;0.40;0.40;;;1.20;99.90;;;;;;5028043;28;20501;-73
2022/01/08 03:07:44;;;;;;;0.30;0.30;;;1.10;99.90;;;;;;5031765;28;20075;-73
2022/01/08 03:10:12;;;;;;;0.90;0.90;;;1.10;99.90;;;;;;5031466;28;20038;-73
2022/01/08 03:12:41;;;;;;;0.30;0.30;;;1.10;99.90;;;;;;5028364;28;20056;-74
2022/01/08 03:15:12;;;;;;;0.30;0.30;;;1.10;99.90;;;;;;5031306;28;20037;-73
2022/01/08 03:17:39;;;;;;;0.43;0.43;;;1.10;99.90;;;;;;5031061;28;20045;-73
2022/01/08 03:20:09;;;;;;;0.22;0.22;;;1.00;99.90;;;;;;5028148;28;20033;-73
2022/01/08 03:22:36;;;;;;;0.30;0.30;;;1.00;99.90;;;;;;5031200;28;20041;-73
2022/01/08 03:25:04;;;;;;;0.30;0.30;;;0.90;99.90;;;;;;5047831;28;20048;-73
2022/01/08 03:27:30;;;;;;;0.30;0.30;;;0.90;99.90;;;;;;5030924;28;20041;-73
2022/01/08 03:29:56;;;;;;;3.72;1.48;;;0.80;99.90;;;;;;5029028;28;20048;-73
2022/01/08 03:32:22;;;;;;;0.20;0.20;;;0.80;99.90;;;;;;5031333;28;20033;-73
2022/01/08 03:34:48;;;;;;;0.30;0.30;;;0.70;99.90;;;;;;5031365;28;20045;-73
2022/01/08 03:37:14;;;;;;;0.52;0.52;;;0.70;99.90;;;;;;5028172;28;20187;-73
2022/01/08 03:39:40;;;;;;;0.40;0.40;;;0.70;99.90;;;;;;5028882;28;20061;-73
2022/01/08 03:42:05;;;;;;;3.10;0.65;;;0.80;99.90;;;;;;5030997;28;20052;-73
2022/01/08 03:44:32;;;;;;;0.30;0.30;;;0.80;99.90;;;;;;5030974;28;20049;-73
2022/01/08 03:47:21;;;;;;;1.30;0.85;;;0.80;99.90;;;;;;5026441;28;20052;-73
2022/01/08 03:49:44;;;;;;;0.30;0.30;;;0.80;99.90;;;;;;5030942;28;20045;-73
2022/01/08 03:52:11;;;;;;;0.98;0.85;;;0.80;99.90;;;;;;5030234;28;20038;-73
2022/01/08 03:54:37;;;;;;;0.30;0.30;;;0.80;99.90;;;;;;5028643;28;20462;-73
2022/01/08 03:57:03;;;;;;;0.40;0.40;;;0.80;99.90;;;;;;5029129;28;20130;-74
2022/01/08 03:59:29;;;;;;;0.30;0.30;;;0.80;99.90;;;;;;5030939;28;20052;-73
2022/01/08 04:01:55;;;;;;;1.25;1.02;;;0.80;99.90;;;;;;5030710;28;20045;-73
2022/01/08 04:04:20;;;;;;;0.30;0.30;;;0.90;99.90;;;;;;5028167;28;20045;-73
2022/01/08 04:06:46;;;;;;;6.57;2.25;;;0.90;99.90;;;;;;5030611;28;20056;-73
2022/01/08 04:09:13;;;;;;;0.30;0.30;;;1.00;99.90;;;;;;5030448;28;20045;-73
2022/01/08 04:11:39;;;;;;;0.32;0.32;;;1.00;99.90;;;;;;5021885;28;20052;-73
2022/01/08 04:14:05;;;;;;;0.40;0.40;;;1.00;99.90;;;;;;5028058;28;20037;-73
2022/01/08 04:16:33;;;;;;;2.20;1.15;;;1.00;99.90;;;;;;5030144;28;20053;-73
2022/01/08 04:18:59;;;;;;;5.60;1.85;;;1.10;99.90;;;;;;5028786;28;20045;-73
2022/01/08 04:23:56;;;;;;;0.80;0.80;;;1.20;99.90;;;;;;5029671;28;20132;-73
2022/01/08 04:26:23;;;;;;;3.28;0.65;;;1.30;99.90;;;;;;5030390;28;20103;-73
2022/01/08 04:28:55;;;;;;;3.67;2.13;;;1.30;99.90;;;;;;5024665;28;20413;-73
2022/01/08 04:31:24;;;;;;;0.50;0.50;;;1.30;99.90;;;;;;5030267;28;20086;-73
2022/01/08 04:33:51;;;;;;;0.65;0.65;;;1.30;99.90;;;;;;5030253;28;20038;-73
2022/01/08 04:36:17;;;;;;;0.45;0.45;;;1.30;99.90;;;;;;5029962;28;20444;-73
2022/01/08 04:38:43;;;;;;;0.43;0.43;;;1.30;99.90;;;;;;5009060;28;20103;-73
2022/01/08 04:41:09;;;;;;;0.43;0.43;;;1.30;99.90;;;;;;5024247;28;20077;-73
2022/01/08 04:43:37;;;;;;;0.30;0.30;;;1.30;99.90;;;;;;5030020;28;20052;-73
2022/01/08 04:46:04;;;;;;;0.68;0.68;;;1.40;99.90;;;;;;5029521;28;20413;-73
2022/01/08 04:48:29;;;;;;;0.68;0.68;;;1.40;99.90;;;;;;5018989;28;20084;-73
2022/01/08 04:50:55;;;;;;;1.10;0.68;;;1.40;99.90;;;;;;5029373;28;20045;-73
2022/01/08 04:53:21;;;;;;;0.35;0.35;;;1.40;99.90;;;;;;5012930;28;20121;-73
2022/01/08 04:55:46;;;;;;;0.30;0.30;;;1.40;99.90;;;;;;5021421;28;20094;-73
2022/01/08 04:58:12;;;;;;;2.03;0.95;;;1.40;99.90;;;;;;5029634;28;20041;-73
2022/01/08 05:00:39;;;;;;;0.45;0.45;;;1.40;99.90;;;;;;5063112;28;20072;-73
2022/01/08 05:03:05;;;;;;;0.40;0.40;;;1.40;99.90;;;;;;5013055;28;20045;-73
2022/01/08 05:05:31;;;;;;;0.50;0.50;;;1.40;99.90;;;;;;5023888;28;20037;-73
2022/01/08 05:07:56;;;;;;;1.00;0.73;;;1.40;99.90;;;;;;5029076;28;20462;-73
2022/01/08 05:10:22;;;;;;;0.32;0.32;;;1.40;99.90;;;;;;5029445;28;20094;-73
2022/01/08 05:12:48;;;;;;;0.40;0.40;;;1.40;99.90;;;;;;5019643;28;20087;-73
2022/01/08 05:15:15;;;;;;;0.20;0.20;;;1.40;99.90;;;;;;5029032;28;20045;-73
2022/01/08 05:17:43;;;;;;;0.50;0.50;;;1.40;99.90;;;;;;5029502;28;20148;-73
2022/01/08 05:20:11;;;;;;;0.30;0.30;;;1.30;99.90;;;;;;5027423;28;20094;-73
2022/01/08 05:25:17;;;;;;;0.30;0.30;;;1.30;99.90;;;;;;5029497;28;20052;-73
2022/01/08 05:27:43;;;;;;;0.30;0.30;;;1.20;99.90;;;;;;5028713;28;20049;-73
2022/01/08 05:30:10;;;;;;;0.30;0.30;;;1.20;99.90;;;;;;5018131;28;20124;-73
2022/01/08 05:32:37;;;;;;;0.40;0.40;;;1.10;99.90;;;;;;5029479;28;20045;-73
2022/01/08 05:35:03;;;;;;;0.30;0.30;;;1.00;99.90;;;;;;5029171;28;20051;-73
2022/01/08 05:37:28;;;;;;;0.30;0.30;;;1.00;99.90;;;;;;5016701;28;20407;-73
2022/01/08 05:39:55;;;;;;;0.30;0.30;;;1.00;99.90;;;;;;5016757;28;20135;-73
2022/01/08 05:42:21;;;;;;;0.50;0.50;;;0.90;99.90;;;;;;5028810;28;20044;-73
2022/01/08 05:44:46;;;;;;;0.30;0.30;;;0.90;99.90;;;;;;5044991;28;20379;-73
2022/01/08 05:47:13;;;;;;;0.30;0.30;;;0.90;99.90;;;;;;5020316;28;20037;-73
2022/01/08 05:49:39;;;;;;;3.15;0.63;;;0.90;99.90;;;;;;5028795;28;20038;-73
2022/01/08 05:52:07;;;;;;;0.30;0.30;;;0.90;99.90;;;;;;5029155;28;20048;-73
2022/01/08 05:54:33;;;;;;;0.47;0.47;;;0.80;99.90;;;;;;5028246;28;20053;-73
2022/01/08 05:56:59;;;;;;;1.77;0.95;;;0.80;99.90;;;;;;5018084;28;20413;-73
2022/01/08 05:59:26;;;;;;;1.33;1.00;;;0.80;99.90;;;;;;5026838;28;20045;-73
2022/01/08 06:01:56;;;;;;;0.40;0.40;;;0.80;99.90;;;;;;5028363;28;20045;-73
2022/01/08 06:04:22;;;;;;;0.68;0.68;;;0.70;99.90;;;;;;5015789;28;20399;-73
2022/01/08 06:06:48;;;;;;;0.80;0.57;;;0.70;99.90;;;;;;5024515;28;20126;-73
2022/01/08 06:09:14;;;;;;;0.63;0.63;;;0.70;99.90;;;;;;5028785;28;20124;-73
2022/01/08 06:11:40;;;;;;;1.63;1.52;;;0.70;99.90;;;;;;5021057;28;20073;-73
2022/01/08 06:14:06;;;;;;;2.45;1.05;;;0.70;99.90;;;;;;5058121;28;20111;-73
2022/01/08 06:16:37;;;;;;;1.08;1.00;;;0.70;99.90;;;;;;5027853;28;20501;-73
2022/01/08 06:19:05;;;;;;;9.85;1.27;;;0.80;99.90;;;;;;5042035;28;20096;-73
2022/01/08 06:21:31;;;;;;;0.93;0.88;;;0.70;99.90;;;;;;5024102;28;20123;-73
2022/01/08 06:23:57;;;;;;;0.70;0.70;;;0.70;99.90;;;;;;5028164;28;20493;-73
2022/01/08 06:26:23;;;;;;;4.75;0.98;;;0.70;99.90;;;;;;5027007;28;20112;-73
2022/01/08 06:28:51;;;;;;;0.85;0.85;;;0.70;99.90;;;;;;5019776;28;20042;-73
2022/01/08 06:31:18;;;;;;;3.35;1.45;;;0.70;99.90;;;;;;5028263;28;20049;-73
2022/01/08 06:33:45;;;;;;;1.30;1.20;;;0.60;99.90;;;;;;5011898;28;20048;-73
2022/01/08 06:36:10;;;;;;;0.55;0.38;;;0.60;99.90;;;;;;5026443;28;20406;-73
2022/01/08 06:38:36;;;;;;;1.90;1.48;;;0.60;99.90;;;;;;5020717;28;20053;-73
2022/01/08 06:41:02;;;;;;;3.20;0.75;;;0.60;99.90;;;;;;5032176;28;20164;-73
2022/01/08 06:43:27;;;;;;;3.00;1.55;;;0.60;99.90;;;;;;5032315;28;20446;-73
2022/01/08 06:45:53;;;;;;;0.73;0.73;;;0.60;99.90;;;;;;5020849;28;20510;-73
2022/01/08 06:48:19;;;;;;;1.60;1.33;;;0.60;99.90;;;;;;5032467;28;20050;-73
2022/01/08 06:50:45;;;;;;;2.15;1.95;;;0.60;99.90;;;;;;5031794;28;20079;-73
2022/01/08 06:53:10;;;;;;;5.25;2.90;;;0.60;99.90;;;;;;5031924;28;20041;-73
2022/01/08 06:55:36;;;;;;;2.83;1.48;;;0.60;99.90;;;;;;5020139;28;20120;-73
2022/01/08 06:58:02;;;;;;;1.58;1.35;;;0.60;99.90;;;;;;5031190;28;20128;-73
2022/01/08 07:00:28;;;;;;;3.10;1.98;;;0.60;99.90;;;;;;5031919;28;20073;-73
2022/01/08 07:02:54;;;;;;;0.50;0.50;;;0.50;99.90;;;;;;5028005;28;20072;-73
2022/01/08 07:05:19;;;;;;;0.80;0.80;;;0.50;99.90;;;;;;5031700;28;20553;-73
2022/01/08 07:07:45;;;;;;;0.95;0.95;;;0.50;99.90;;;;;;5031204;28;20044;-73
2022/01/08 07:10:11;;;;;;;0.80;0.65;;;0.50;99.90;;;;;;5030283;28;20083;-73
2022/01/08 07:12:36;;;;;;;4.47;1.95;;;0.50;99.90;;;;;;5022785;28;20045;-73
2022/01/08 07:15:03;;;;;;;1.27;1.10;;;0.50;99.90;;;;;;5027968;28;20139;-73
2022/01/08 07:17:29;;;;;;;0.55;0.55;;;0.50;99.90;;;;;;5031176;28;20128;-73
2022/01/08 07:19:55;;;;;;;12.10;1.77;;;0.40;99.90;;;;;;5029053;28;20434;-73
2022/01/08 07:22:20;;;;;;;1.88;1.77;;;0.40;99.90;;;;;;5031184;28;20051;-73
2022/01/08 07:24:46;;;;;;;5.78;1.60;;;0.50;99.90;;;;;;5031220;28;20092;-73
2022/01/08 07:27:13;;;;;;;0.80;0.80;;;0.50;99.90;;;;;;5043741;28;20037;-73
2022/01/08 07:29:39;;;;;;;2.92;1.92;;;0.50;99.90;;;;;;5029364;28;20948;-73
2022/01/08 07:32:05;;;;;;;0.82;0.82;;;0.50;99.90;;;;;;5030470;28;20120;-73
2022/01/08 07:34:31;;;;;;;1.38;1.27;;;0.50;99.90;;;;;;5031352;28;20510;-73
2022/01/08 07:36:57;;;;;;;0.50;0.50;;;0.50;99.90;;;;;;5026198;28;20037;-73
2022/01/08 07:39:22;;;;;;;1.48;1.38;;;0.50;99.90;;;;;;5025911;28;20502;-73
2022/01/08 07:41:48;;;;;;;3.05;2.50;;;0.50;99.90;;;;;;5030611;28;20045;-73
2022/01/08 07:44:14;;;;;;;9.52;2.88;;;0.50;99.90;;;;;;5030949;28;20046;-73
2022/01/08 07:46:40;;;;;;;1.38;1.25;;;0.60;99.90;;;;;;5023695;28;20575;-73
2022/01/08 07:49:06;;;;;;;7.68;1.40;;;0.60;99.90;;;;;;5030915;28;20045;-73
2022/01/08 07:51:31;;;;;;;1.88;0.88;;;0.60;99.90;;;;;;5030019;28;20150;-73
2022/01/08 07:53:57;;;;;;;13.05;0.75;;;0.70;99.90;;;;;;5030585;28;20052;-73
2022/01/08 07:56:23;;;;;;;0.85;0.68;;;0.70;99.90;;;;;;5022234;28;20426;-73
2022/01/08 07:58:49;;;;;;;4.57;1.60;;;0.70;99.90;;;;;;5026655;28;20042;-73
2022/01/08 08:01:14;;;;;;;1.27;1.27;;;0.70;99.90;;;;;;5030797;28;20179;-73
2022/01/08 08:03:40;;;;;;;7.13;3.30;;;0.70;99.90;;;;;;5030690;28;20056;-73
2022/01/08 08:06:10;;;;;;;1.95;1.73;;;0.70;99.90;;;;;;5020189;28;20513;-73
2022/01/08 08:08:36;;;;;;;0.80;0.77;;;0.80;99.90;;;;;;5031317;28;20049;-74
2022/01/08 08:11:02;;;;;;;1.17;1.13;;;0.80;99.90;;;;;;5028771;28;20052;-73
2022/01/08 08:13:27;;;;;;;1.10;0.98;;;0.70;99.90;;;;;;5014077;28;20107;-74
2022/01/08 08:15:53;;;;;;;3.53;1.30;;;0.80;99.90;;;;;;5029851;28;20041;-73
2022/01/08 08:18:19;;;;;;;5.43;1.83;;;0.80;99.90;;;;;;5010936;28;20053;-73
2022/01/08 08:20:45;;;;;;;0.47;0.47;;;0.90;99.90;;;;;;5017822;28;20417;-73
2022/01/08 08:23:11;;;;;;;2.85;1.02;;;1.00;99.90;;;;;;5022098;28;20450;-73
2022/01/08 08:25:37;;;;;;;3.45;0.85;;;1.10;99.90;;;;;;5026581;28;20095;-73
2022/01/08 08:28:06;;;;;;;17.48;1.23;;;1.20;99.90;;;;;;5030375;28;20120;-73
2022/01/08 08:30:35;;;;;;;0.52;0.52;;;1.50;99.90;;;;;;5022984;28;20390;-73
2022/01/08 08:33:03;;;;;;;6.22;1.30;;;1.60;99.90;;;;;;5020747;28;20046;-73
2022/01/08 08:35:29;;;;;;;0.77;0.77;;;1.80;99.90;;;;;;5060358;28;20835;-73
2022/01/08 08:37:55;;;;;;;5.40;1.95;;;2.00;99.90;;;;;;5025584;28;20073;-73
2022/01/08 08:40:20;;;;;;;2.53;0.93;;;2.30;99.90;;;;;;5028857;28;20398;-73
2022/01/08 08:42:46;;;;;;;3.53;2.47;;;2.70;99.90;;;;;;5029814;28;20041;-73
2022/01/08 08:45:12;;;;;;;3.00;1.60;;;2.80;99.90;;;;;;5021175;28;20042;-73
2022/01/08 08:47:39;;;;;;;2.03;0.93;;;2.90;99.90;;;;;;5027072;28;20038;-73
2022/01/08 08:50:11;;;;;;;2.05;1.15;;;2.80;99.90;;;;;;5029619;28;20557;-73
2022/01/08 08:52:37;;;;;;;6.63;2.00;;;2.80;99.90;;;;;;5025429;28;20498;-73
2022/01/08 08:55:04;;;;;;;1.92;1.75;;;2.70;99.90;;;;;;5025439;28;20048;-73
2022/01/08 08:57:29;;;;;;;1.80;1.70;;;2.50;99.90;;;;;;5020844;28;20053;-73
2022/01/08 08:59:56;;;;;;;1.55;1.38;;;2.50;99.90;;;;;;5029664;28;20095;-73
2022/01/08 09:02:22;;;;;;;1.83;1.25;;;2.60;99.90;;;;;;5017336;28;20046;-73
2022/01/08 09:04:52;;;;;;;0.70;0.70;;;2.80;99.90;;;;;;5025088;28;20052;-73
2022/01/08 09:07:18;;;;;;;0.60;0.60;;;3.10;99.90;;;;;;5025111;28;20041;-73
2022/01/08 09:09:44;;;;;;;4.13;1.92;;;3.50;99.90;;;;;;5004398;28;20037;-73
2022/01/08 09:12:14;;;;;;;0.70;0.70;;;3.70;99.90;;;;;;5023234;28;20033;-73
2022/01/08 09:14:42;;;;;;;0.93;0.82;;;3.70;99.90;;;;;;5029390;28;20083;-73
2022/01/08 09:17:09;;;;;;;0.60;0.60;;;3.50;99.90;;;;;;5042920;28;20046;-73
2022/01/08 09:19:35;;;;;;;0.40;0.40;;;3.40;99.90;;;;;;5019163;28;20050;-73
2022/01/08 09:22:02;;;;;;;1.15;0.82;;;3.30;99.90;;;;;;5036222;28;20053;-73
2022/01/08 09:24:28;;;;;;;0.30;0.30;;;3.10;99.90;;;;;;5025578;28;20046;-73
2022/01/08 09:26:54;;;;;;;1.52;1.33;;;3.00;99.90;;;;;;5027180;28;20041;-73
2022/01/08 09:29:19;;;;;;;0.80;0.80;;;3.00;99.90;;;;;;5015529;28;20560;-73
2022/01/08 09:31:45;;;;;;;0.40;0.40;;;3.00;99.90;;;;;;5023570;28;20041;-73
2022/01/08 09:34:12;;;;;;;0.38;0.38;;;3.00;99.90;;;;;;5020996;28;20057;-73
2022/01/08 09:36:38;;;;;;;2.38;1.13;;;2.90;99.90;;;;;;5039007;28;20046;-73
2022/01/08 09:39:06;;;;;;;0.52;0.52;;;3.00;99.90;;;;;;5027373;28;20084;-73
2022/01/08 09:41:32;;;;;;;0.70;0.70;;;2.90;99.90;;;;;;5017991;28;20043;-73
2022/01/08 09:43:57;;;;;;;0.90;0.90;;;2.90;99.90;;;;;;5005053;28;20049;-73
2022/01/08 09:46:23;;;;;;;1.05;0.93;;;2.90;99.90;;;;;;5023084;28;20471;-73
2022/01/08 09:48:49;;;;;;;3.00;1.27;;;2.90;99.90;;;;;;5028558;28;20052;-73
2022/01/08 09:51:16;;;;;;;0.75;0.75;;;3.10;99.90;;;;;;5028929;28;20033;-73
2022/01/08 09:53:43;;;;;;;0.57;0.57;;;3.20;99.90;;;;;;5020809;28;20141;-73
2022/01/08 09:56:10;;;;;;;1.27;1.25;;;3.20;99.90;;;;;;5021248;28;20046;-73
2022/01/08 09:58:36;;;;;;;11.70;0.95;;;3.20;99.90;;;;;;5024884;28;20074;-73
2022/01/08 10:01:02;;;;;;;0.47;0.47;;;3.20;99.90;;;;;;5028101;28;20049;-73
2022/01/08 10:03:31;;;;;;;0.55;0.55;;;3.30;99.90;;;;;;5023017;28;20054;-73
2022/01/08 10:06:01;;;;;;;0.30;0.30;;;3.30;99.90;;;;;;5021637;28;20116;-73
2022/01/08 10:08:28;;;;;;;4.38;1.30;;;3.40;99.90;;;;;;5025763;28;20077;-73
2022/01/08 10:11:02;;;;;;;0.82;0.82;;;3.50;99.90;;;;;;5019058;28;20045;-73
2022/01/08 10:13:35;;;;;;;0.40;0.40;;;3.50;99.90;;;;;;5025856;28;20053;-73
2022/01/08 10:18:47;;;;;;;5.95;2.67;;;3.60;99.90;;;;;;5032424;28;20049;-73
2022/01/08 10:21:20;;;;;;;1.05;0.70;;;3.60;99.90;;;;;;5030433;28;20397;-73
2022/01/08 10:23:58;;;;;;;0.40;0.40;;;3.60;99.90;;;;;;5032531;28;20053;-73
2022/01/08 10:26:30;;;;;;;1.75;0.75;;;3.70;99.90;;;;;;5032042;28;20480;-73
2022/01/08 10:29:03;;;;;;;0.63;0.63;;;3.70;99.90;;;;;;5031250;28;20040;-73
2022/01/08 10:31:38;;;;;;;3.55;1.05;;;3.70;99.90;;;;;;5017814;28;20465;-73
2022/01/08 10:34:10;;;;;;;1.23;1.13;;;3.70;99.90;;;;;;5025697;28;20409;-73
2022/01/08 10:36:46;;;;;;;4.95;0.98;;;3.70;99.90;;;;;;5018395;28;20049;-73
2022/01/08 10:39:36;;;;;;;1.55;1.45;;;3.70;99.90;;;;;;5053441;28;20045;-73
2022/01/08 10:42:24;;;;;;;2.13;1.80;;;3.70;99.90;;;;;;5028463;28;20187;-73
2022/01/08 10:44:50;;;;;;;1.25;1.10;;;3.70;99.90;;;;;;5023794;28;20045;-73
2022/01/08 10:47:21;;;;;;;2.05;1.58;;;3.70;99.90;;;;;;5022903;28;20402;-73
2022/01/08 10:50:02;;;;;;;1.10;1.10;;;3.60;99.90;;;;;;5031913;28;20053;-73
2022/01/08 10:53:05;;;;;;;6.93;1.70;;;3.60;99.90;;;;;;5031566;28;20045;-73
2022/01/08 10:55:32;;;;;;;0.93;0.93;;;3.60;99.90;;;;;;5013121;28;20041;-73
2022/01/08 10:57:58;;;;;;;3.38;1.45;;;3.60;99.90;;;;;;5032019;28;20041;-73
2022/01/08 11:04:07;;;;;;;1.42;1.33;;;3.50;99.90;;;;;;5028988;28;20099;-73
2022/01/08 11:06:41;;;;;;;14.15;4.72;;;3.50;99.90;;;;;;5031155;28;20570;-73
2022/01/08 11:09:07;;;;;;;4.50;1.55;;;3.40;99.90;;;;;;5009230;28;20045;-73
2022/01/08 11:11:33;;;;;;;1.42;1.33;;;3.40;99.90;;;;;;5012151;28;20034;-73
2022/01/08 11:14:07;;;;;;;1.38;1.27;;;3.50;99.90;;;;;;5014333;28;20153;-73
2022/01/08 11:16:34;;;;;;;1.00;1.00;;;3.50;99.90;;;;;;5030581;28;20120;-73
2022/01/08 11:19:03;;;;;;;7.53;1.20;;;3.60;99.90;;;;;;5031482;28;20049;-73
2022/01/08 11:21:31;;;;;;;7.15;2.05;;;3.60;99.90;;;;;;5031047;28;20179;-73
2022/01/08 11:23:59;;;;;;;2.10;1.38;;;3.70;99.90;;;;;;5027654;28;20053;-73
2022/01/08 11:26:27;;;;;;;1.92;1.75;;;3.70;99.90;;;;;;5029609;28;20038;-73
2022/01/08 11:28:58;;;;;;;3.13;2.03;;;3.80;99.90;;;;;;5031583;28;20041;-73
2022/01/08 11:31:30;;;;;;;1.98;1.80;;;3.90;99.90;;;;;;5044430;28;20485;-73
2022/01/08 11:34:03;;;;;;;1.85;1.55;;;3.90;99.90;;;;;;5031376;28;20124;-73
2022/01/08 11:36:30;;;;;;;7.38;1.67;;;3.90;99.90;;;;;;5030604;28;20049;-73
2022/01/08 11:38:57;;;;;;;1.58;1.48;;;3.90;99.90;;;;;;5011659;28;20080;-73
2022/01/08 11:41:23;;;;;;;1.40;1.30;;;3.90;99.90;;;;;;5021633;28;20045;-73
2022/01/08 11:43:50;;;;;;;1.40;1.15;;;3.90;99.90;;;;;;5031078;28;20053;-73
2022/01/08 11:46:17;;;;;;;4.20;2.40;;;4.00;99.90;;;;;;5030725;28;20044;-73
2022/01/08 11:48:49;;;;;;;1999.90;999.90;;;4.00;99.90;;;;;;5030261;28;20041;-73
2022/01/08 11:51:24;;;;;;;1999.90;999.90;;;4.00;99.90;;;;;;5052392;28;20069;-73
2022/01/08 11:53:59;;;;;;;1999.90;999.90;;;4.00;99.90;;;;;;5030899;28;20100;-73
2022/01/08 11:56:28;;;;;;;1999.90;999.90;;;4.10;99.90;;;;;;5046275;28;20037;-73
2022/01/08 11:59:18;;;;;;;1999.90;999.90;;;4.10;99.90;;;;;;5027583;28;20073;-73
2022/01/08 12:02:04;;;;;;;1999.90;999.90;;;4.10;99.90;;;;;;5030931;28;20099;-73
2022/01/08 12:04:35;;;;;;;1999.90;999.90;;;4.10;99.90;;;;;;5050697;28;20056;-73
2022/01/08 12:07:24;;;;;;;1999.90;999.90;;;4.10;99.90;;;;;;5029771;28;20259;-73
2022/01/08 12:10:02;;;;;;;1999.90;999.90;;;4.10;99.90;;;;;;5019563;28;20409;-73
2022/01/08 12:12:45;;;;;;;1999.90;999.90;;;4.10;99.90;;;;;;5012750;28;20039;-73
2022/01/08 12:15:12;;;;;;;1999.90;999.90;;;4.00;99.90;;;;;;5030053;28;20090;-73
2022/01/08 12:17:58;;;;;;;1999.90;999.90;;;4.00;99.90;;;;;;5046424;28;20091;-73
2022/01/08 12:20:50;;;;;;;1999.90;999.90;;;4.00;99.90;;;;;;5030769;28;20045;-73
2022/01/08 12:23:32;;;;;;;1999.90;999.90;;;4.00;99.90;;;;;;5045648;28;20056;-73
2022/01/08 12:26:28;;;;;;;1999.90;999.90;;;4.00;99.90;;;;;;5061431;28;20049;-73
2022/01/08 12:29:00;;;;;;;1999.90;999.90;;;4.10;99.90;;;;;;5013187;28;20383;-73
2022/01/08 12:31:36;;;;;;;1999.90;999.90;;;4.10;99.90;;;;;;5033411;28;20038;-73
2022/01/08 12:34:17;;;;;;;1999.90;999.90;;;4.10;99.90;;;;;;5030102;28;20045;-73
2022/01/08 12:37:00;;;;;;;1999.90;999.90;;;4.10;99.90;;;;;;5029299;28;20049;-73
2022/01/08 12:39:50;;;;;;;1999.90;999.90;;;4.10;99.90;;;;;;5012184;28;20056;-74
2022/01/08 12:42:25;;;;;;;1999.90;999.90;;;4.10;99.90;;;;;;5031511;28;20053;-73
2022/01/08 12:45:15;;;;;;;1999.90;999.90;;;4.10;99.90;;;;;;5029934;28;20405;-73
2022/01/08 12:47:52;;;;;;;1999.90;999.90;;;4.10;99.90;;;;;;5016898;28;20120;-73
2022/01/08 12:50:52;;;;;;;1999.90;999.90;;;4.10;99.90;;;;;;5012923;28;20046;-73
2022/01/08 12:53:22;;;;;;;1999.90;999.90;;;4.10;99.90;;;;;;5013989;28;20057;-73
2022/01/08 12:55:54;;;;;;;1999.90;999.90;;;4.10;99.90;;;;;;5045401;28;20041;-73
2022/01/08 12:58:26;;;;;;;1999.90;999.90;;;4.10;99.90;;;;;;5017769;28;20049;-73
2022/01/08 13:01:04;;;;;;;1999.90;999.90;;;4.10;99.90;;;;;;5029789;28;20073;-73
2022/01/08 13:03:34;;;;;;;1999.90;999.90;;;4.10;99.90;;;;;;5028327;28;20060;-73
2022/01/08 13:06:02;;;;;;;1999.90;999.90;;;4.10;99.90;;;;;;5028658;28;20041;-73
2022/01/08 13:08:33;;;;;;;1999.90;999.90;;;4.10;99.90;;;;;;5029371;28;20136;-73
2022/01/08 13:11:01;;;;;;;1999.90;999.90;;;4.10;99.90;;;;;;5041707;28;20450;-73
2022/01/08 13:13:40;;;;;;;1999.90;999.90;;;4.10;99.90;;;;;;5046867;28;20420;-73
2022/01/08 13:16:21;;;;;;;1999.90;999.90;;;4.10;99.90;;;;;;5045530;28;20168;-73
2022/01/08 13:18:56;;;;;;;1999.90;999.90;;;4.10;99.90;;;;;;5012566;28;20045;-73
2022/01/08 13:21:29;;;;;;;1999.90;999.90;;;4.10;99.90;;;;;;5045500;28;20104;-73
2022/01/08 13:23:56;;;;;;;1999.90;999.90;;;4.10;99.90;;;;;;5012899;28;20049;-73
2022/01/08 13:26:29;;;;;;;1999.90;999.90;;;4.10;99.90;;;;;;5012257;28;20125;-73